Time;durP1;ratioP1;P1;durP2;ratioP2;P2;SDS_P1;SDS_P2;PMS_P1;PMS_P2;Temp;Humidity;BMP_temperature;BMP_pressure;BME280_temperature;BME280_humidity;BME280_pressure;Samples;Min_cycle;Max_cycle;Signal;HPM_P1;HPM_P2
2022/09/25 00:00:13;;;;;;;13.63;3.17;;;;;;;10.56;100.00;101248.69;1984467;28;20028;-69
2022/09/25 00:01:11;;;;;;;7.28;3.25;;;;;;;10.49;100.00;101247.19;1977704;28;20037;-69
2022/09/25 00:02:09;;;;;;;13.48;3.47;;;;;;;10.55;100.00;101251.34;1977228;28;20057;-71
2022/09/25 00:03:10;;;;;;;9.95;3.20;;;;;;;10.53;100.00;101250.53;1977304;28;20035;-69
2022/09/25 00:04:07;;;;;;;11.70;3.42;;;;;;;10.46;100.00;101254.25;1977181;28;20040;-68
2022/09/25 00:05:06;;;;;;;14.02;3.88;;;;;;;10.50;100.00;101251.50;1977243;28;20029;-69
2022/09/25 00:06:13;;;;;;;13.50;3.63;;;;;;;10.52;100.00;101256.66;1977127;28;20438;-70
2022/09/25 00:07:11;;;;;;;14.80;3.67;;;;;;;10.39;100.00;101258.81;1977182;28;20029;-70
2022/09/25 00:08:09;;;;;;;11.77;3.10;;;;;;;10.41;100.00;101259.63;1977152;28;20043;-69
2022/09/25 00:09:07;;;;;;;10.65;3.30;;;;;;;10.42;100.00;101256.09;1984349;28;20046;-70
2022/09/25 00:10:05;;;;;;;13.75;3.47;;;;;;;10.45;100.00;101260.41;1984411;28;20412;-69
2022/09/25 00:11:11;;;;;;;12.10;3.03;;;;;;;10.39;100.00;101261.44;1978516;28;20026;-68
2022/09/25 00:12:09;;;;;;;9.48;3.10;;;;;;;10.42;100.00;101266.53;1978527;28;20033;-69
2022/09/25 00:13:07;;;;;;;11.60;3.42;;;;;;;10.35;100.00;101265.06;1976240;28;20026;-71
2022/09/25 00:14:05;;;;;;;10.57;3.50;;;;;;;10.33;100.00;101266.88;1978492;28;20068;-70
2022/09/25 00:15:04;;;;;;;13.75;3.83;;;;;;;10.31;100.00;101270.38;1978525;28;20021;-70
2022/09/25 00:16:03;;;;;;;9.00;3.30;;;;;;;10.35;100.00;101265.06;1978450;28;20041;-71
2022/09/25 00:17:01;;;;;;;11.85;3.30;;;;;;;10.31;100.00;101270.38;1978573;28;20477;-70
2022/09/25 00:17:58;;;;;;;9.38;3.28;;;;;;;10.37;100.00;101268.47;1978554;28;20041;-71
2022/09/25 00:20:19;;;;;;;9.02;3.00;;;;;;;10.27;100.00;101273.16;1978570;28;20037;-69
2022/09/25 00:21:18;;;;;;;12.32;3.38;;;;;;;10.33;100.00;101270.31;1978595;28;20428;-70
2022/09/25 00:22:17;;;;;;;9.07;3.42;;;;;;;10.32;100.00;101268.63;1978487;28;20028;-69
2022/09/25 00:23:15;;;;;;;9.20;3.35;;;;;;;10.30;100.00;101268.66;1978529;28;20029;-71
2022/09/25 00:24:13;;;;;;;12.35;3.20;;;;;;;10.29;100.00;101266.97;1978435;28;20026;-69
2022/09/25 00:25:16;;;;;;;6.90;3.30;;;;;;;10.25;100.00;101270.59;1978474;28;20079;-69
2022/09/25 00:26:15;;;;;;;6.50;3.00;;;;;;;10.18;100.00;101275.19;1978454;28;20076;-69
2022/09/25 00:27:14;;;;;;;8.48;3.42;;;;;;;10.20;100.00;101272.53;1978486;28;20108;-69
2022/09/25 00:28:12;;;;;;;11.70;3.33;;;;;;;10.23;100.00;101271.56;1977762;28;20029;-70
2022/09/25 00:29:19;;;;;;;13.95;3.50;;;;;;;10.17;100.00;101277.84;1977874;28;20030;-69
2022/09/25 00:30:16;;;;;;;8.00;3.00;;;;;;;10.15;100.00;101271.81;1978570;28;20069;-70
2022/09/25 00:31:23;;;;;;;11.57;3.42;;;;;;;10.16;100.00;101263.06;1978343;28;20026;-71
2022/09/25 00:32:20;;;;;;;12.23;3.08;;;;;;;10.14;100.00;101272.72;1978451;28;20029;-71
2022/09/25 00:33:18;;;;;;;9.38;3.38;;;;;;;10.12;100.00;101277.97;1978444;28;20037;-70
2022/09/25 00:34:15;;;;;;;9.35;3.30;;;;;;;10.12;100.00;101270.16;1978227;28;20045;-70
2022/09/25 00:35:13;;;;;;;11.52;3.30;;;;;;;10.07;100.00;101271.22;1978383;28;20466;-71
2022/09/25 00:36:10;;;;;;;11.40;3.45;;;;;;;10.12;100.00;101274.50;1978494;28;20536;-70
2022/09/25 00:37:08;;;;;;;7.10;2.88;;;;;;;10.12;100.00;101274.50;1978184;28;20029;-69
2022/09/25 00:38:05;;;;;;;11.93;3.63;;;;;;;10.07;100.00;101271.22;1978238;28;20075;-71
2022/09/25 00:39:03;;;;;;;14.23;3.00;;;;;;;10.03;100.00;101276.53;1978245;28;20037;-70
2022/09/25 00:40:03;;;;;;;7.32;3.13;;;;;;;10.07;100.00;101271.22;1978519;28;20496;-70
2022/09/25 00:41:04;;;;;;;8.75;3.17;;;;;;;10.03;100.00;101266.09;1978341;28;20029;-70
2022/09/25 00:42:01;;;;;;;10.05;3.42;;;;;;;10.02;100.00;101269.59;1978333;28;20126;-71
2022/09/25 00:42:59;;;;;;;9.75;3.08;;;;;;;9.99;100.00;101272.31;1975987;28;20033;-71
2022/09/25 00:44:01;;;;;;;11.05;3.17;;;;;;;9.95;100.00;101269.88;1978401;28;20036;-71
2022/09/25 00:45:04;;;;;;;11.45;3.40;;;;;;;9.92;100.00;101269.06;1978222;28;20152;-70
2022/09/25 00:46:13;;;;;;;11.10;3.33;;;;;;;9.94;100.00;101271.63;1978319;28;20029;-71
2022/09/25 00:47:17;;;;;;;8.25;3.10;;;;;;;9.91;100.00;101276.94;1978404;28;20032;-71
2022/09/25 00:48:15;;;;;;;13.30;3.80;;;;;;;9.91;100.00;101267.38;1978379;28;20090;-70
2022/09/25 00:49:23;;;;;;;11.00;3.65;;;;;;;9.91;100.00;101272.59;1978206;28;20416;-72
2022/09/25 00:50:37;;;;;;;10.38;3.65;;;;;;;9.88;100.00;101272.66;1978328;28;20111;-72
2022/09/25 00:51:52;;;;;;;8.57;3.15;;;;;;;9.86;100.00;101269.25;1978248;28;20033;-71
2022/09/25 00:52:53;;;;;;;12.07;3.40;;;;;;;9.85;100.00;101271.94;1978314;28;20025;-72
2022/09/25 00:53:51;;;;;;;11.52;3.30;;;;;;;9.81;100.00;101273.78;1978281;28;20028;-71
2022/09/25 00:55:01;;;;;;;10.50;3.63;;;;;;;9.83;100.00;101268.50;1978261;28;20035;-72
2022/09/25 00:56:01;;;;;;;11.25;3.40;;;;;;;9.81;100.00;101260.75;1977640;28;20120;-71
2022/09/25 00:57:05;;;;;;;11.52;3.45;;;;;;;9.83;100.00;101263.28;1977743;28;20025;-72
2022/09/25 00:58:05;;;;;;;9.77;3.22;;;;;;;9.78;100.00;101256.47;1978262;28;20563;-72
2022/09/25 00:59:03;;;;;;;11.50;3.60;;;;;;;9.77;100.00;101260.00;1978210;28;20041;-73
2022/09/25 01:00:11;;;;;;;10.35;3.20;;;;;;;9.81;100.00;101259.91;1978115;28;20499;-74
2022/09/25 01:01:09;;;;;;;12.10;3.58;;;;;;;9.77;100.00;101270.44;1978084;28;20033;-72
2022/09/25 01:02:15;;;;;;;15.50;3.50;;;;;;;9.79;100.00;101262.56;1978125;28;20124;-72
2022/09/25 01:03:14;;;;;;;9.73;3.33;;;;;;;9.78;100.00;101266.91;1977551;28;20463;-70
2022/09/25 01:04:13;;;;;;;13.88;3.70;;;;;;;9.79;100.00;101268.59;1977589;28;20041;-74
2022/09/25 01:05:17;;;;;;;14.57;3.60;;;;;;;9.86;100.00;101268.41;1977122;28;20108;-74
2022/09/25 01:06:20;;;;;;;11.18;3.15;;;;;;;9.91;100.00;101277.78;1977670;28;20469;-72
2022/09/25 01:07:18;;;;;;;11.13;3.30;;;;;;;9.85;100.00;101277.16;1978199;28;20040;-73
2022/09/25 01:08:23;;;;;;;13.10;3.72;;;;;;;9.88;100.00;101279.63;1978120;28;20029;-72
2022/09/25 01:09:21;;;;;;;11.52;3.28;;;;;;;9.84;100.00;101272.81;1978258;28;20037;-74
2022/09/25 01:10:20;;;;;;;9.63;3.50;;;;;;;9.87;100.00;101276.19;1978184;28;20056;-72
2022/09/25 01:11:17;;;;;;;12.70;3.65;;;;;;;9.87;100.00;101272.72;1978207;28;20061;-73
2022/09/25 01:12:15;;;;;;;9.20;3.72;;;;;;;9.82;100.00;101274.63;1978050;28;20040;-72
2022/09/25 01:13:15;;;;;;;10.90;3.38;;;;;;;9.82;100.00;101272.03;1976037;28;20021;-72
2022/09/25 01:14:16;;;;;;;14.50;4.47;;;;;;;9.82;100.00;101278.06;1978065;28;20056;-71
2022/09/25 01:15:22;;;;;;;14.18;3.60;;;;;;;9.82;100.00;101277.25;1978101;28;20078;-72
2022/09/25 01:16:35;;;;;;;11.57;3.67;;;;;;;9.78;100.00;101277.34;1978040;28;20039;-73
2022/09/25 01:17:52;;;;;;;8.68;3.25;;;;;;;9.77;100.00;101280.84;1978211;28;20385;-72
2022/09/25 01:19:25;;;;;;;10.48;3.22;;;;;;;9.75;100.00;101285.25;1978074;28;20112;-72
2022/09/25 01:20:58;;;;;;;10.70;3.90;;;;;;;9.71;100.00;101275.81;1978021;28;20043;-71
2022/09/25 01:22:08;;;;;;;10.75;4.22;;;;;;;9.70;100.00;101279.34;1978041;28;20029;-73
2022/09/25 01:23:54;;;;;;;13.38;3.30;;;;;;;9.64;100.00;101274.31;1977490;28;20060;-72
2022/09/25 01:25:22;;;;;;;18.52;3.50;;;;;;;9.63;100.00;101272.59;1978042;28;20104;-72
2022/09/25 01:26:56;;;;;;;12.50;3.60;;;;;;;9.61;100.00;101279.63;1977983;28;20446;-72
2022/09/25 01:28:37;;;;;;;14.68;4.05;;;;;;;9.57;100.00;101284.06;1978017;28;20554;-73
2022/09/25 01:29:47;;;;;;;;;;;;;;;9.53;100.00;101274.66;1985590;28;20028;-72
2022/09/25 01:30:55;;;;;;;8.85;3.40;;;;;;;9.52;100.00;101276.38;1984526;28;19909;-72
2022/09/25 01:32:02;;;;;;;13.18;4.10;;;;;;;9.50;100.00;101275.59;1978056;28;20025;-73
2022/09/25 01:33:17;;;;;;;10.52;3.50;;;;;;;9.46;100.00;101276.59;1977968;28;20417;-73
2022/09/25 01:34:27;;;;;;;14.38;4.00;;;;;;;9.45;100.00;101282.72;1977763;28;20071;-73
2022/09/25 01:35:48;;;;;;;11.20;3.97;;;;;;;9.45;100.00;101280.13;1978109;28;20487;-72
2022/09/25 01:37:49;;;;;;;17.20;3.92;;;;;;;9.41;100.00;101278.47;1977949;28;20083;-73
2022/09/25 01:38:56;;;;;;;14.55;3.70;;;;;;;9.41;100.00;101286.28;1977962;28;20112;-72
2022/09/25 01:40:03;;;;;;;11.85;3.95;;;;;;;9.39;100.00;101285.50;1977858;28;20450;-72
2022/09/25 01:41:18;;;;;;;17.63;4.13;;;;;;;9.38;100.00;101286.41;1977920;28;20514;-73
2022/09/25 01:42:35;;;;;;;11.95;4.00;;;;;;;9.35;100.00;101289.09;1985071;28;20039;-73
2022/09/25 01:43:51;;;;;;;11.85;4.28;;;;;;;9.29;100.00;101279.72;1983392;28;20167;-71
2022/09/25 01:45:17;;;;;;;14.43;4.38;;;;;;;9.25;100.00;101284.16;1977250;28;20021;-73
2022/09/25 01:46:21;;;;;;;8.68;3.88;;;;;;;9.22;100.00;101284.25;1977502;28;20082;-73
2022/09/25 01:47:29;;;;;;;13.93;4.35;;;;;;;9.21;100.00;101286.91;1977933;28;20060;-72
2022/09/25 01:48:32;;;;;;;13.82;4.65;;;;;;;9.19;100.00;101288.69;1977877;28;20400;-73
2022/09/25 01:49:41;;;;;;;14.18;4.60;;;;;;;9.23;100.00;101290.31;1977975;28;20039;-74
2022/09/25 01:50:59;;;;;;;13.60;4.60;;;;;;;9.18;100.00;101282.66;1977882;28;20503;-74
2022/09/25 01:52:01;;;;;;;12.88;4.22;;;;;;;9.17;100.00;101286.13;1977770;28;20089;-74
2022/09/25 01:53:06;;;;;;;12.98;4.38;;;;;;;9.16;100.00;101292.25;1977945;28;20119;-73
2022/09/25 01:54:17;;;;;;;13.20;5.05;;;;;;;9.13;100.00;101289.72;1977880;28;20034;-73
2022/09/25 01:55:26;;;;;;;21.27;4.70;;;;;;;9.11;100.00;101296.72;1977180;28;20049;-73
2022/09/25 01:56:32;;;;;;;12.23;4.63;;;;;;;9.08;100.00;101291.59;1977219;28;20034;-75
2022/09/25 01:57:49;;;;;;;14.55;4.75;;;;;;;9.06;100.00;101293.41;1977155;28;20022;-75
2022/09/25 01:58:57;;;;;;;9.07;4.15;;;;;;;9.00;100.00;101295.28;1977325;28;20037;-73
2022/09/25 02:00:08;;;;;;;9.77;4.25;;;;;;;8.98;100.00;101296.22;1977746;28;20052;-75
2022/09/25 02:01:21;;;;;;;12.63;4.93;;;;;;;8.97;100.00;101290.16;1977777;28;20056;-75
2022/09/25 02:02:26;;;;;;;13.18;5.18;;;;;;;8.96;100.00;101293.66;1977759;28;20428;-75
2022/09/25 02:03:41;;;;;;;11.00;4.72;;;;;;;8.93;100.00;101287.72;1977784;28;20036;-73
2022/09/25 02:04:52;;;;;;;14.25;4.85;;;;;;;8.89;100.00;101292.13;1977753;28;20393;-75
2022/09/25 02:05:55;;;;;;;13.73;4.70;;;;;;;8.86;100.00;101287.88;1977883;28;20045;-75
2022/09/25 02:06:59;;;;;;;17.63;4.95;;;;;;;8.86;100.00;101289.63;1976930;28;20033;-74
2022/09/25 02:08:09;;;;;;;13.57;5.05;;;;;;;8.84;100.00;101283.59;1977188;28;20030;-74
2022/09/25 02:09:16;;;;;;;12.95;4.85;;;;;;;8.84;100.00;101286.22;1977694;28;20033;-75
2022/09/25 02:10:28;;;;;;;11.88;5.05;;;;;;;8.83;100.00;101287.13;1977163;28;20048;-75
2022/09/25 02:11:37;;;;;;;20.67;5.32;;;;;;;8.80;100.00;101290.66;1978201;28;20029;-74
2022/09/25 02:12:45;;;;;;;15.07;4.80;;;;;;;8.79;100.00;101290.69;1981860;28;20067;-74
2022/09/25 02:13:49;;;;;;;15.15;5.13;;;;;;;8.75;100.00;101284.72;1984893;28;20047;-74
2022/09/25 02:15:18;;;;;;;16.15;4.95;;;;;;;8.71;100.00;101283.94;1984816;28;20396;-74
2022/09/25 02:16:29;;;;;;;12.27;4.45;;;;;;;8.70;100.00;101289.19;1977245;28;20048;-76
2022/09/25 02:21:16;;;;;;;14.48;4.88;;;;;;;8.57;100.00;101286.06;1977619;28;20531;-76
2022/09/25 02:22:22;;;;;;;16.50;4.85;;;;;;;8.54;100.00;101291.34;1976965;28;20021;-74
2022/09/25 02:23:35;;;;;;;22.20;5.22;;;;;;;8.52;100.00;101288.75;1977128;28;20079;-74
2022/09/25 02:24:47;;;;;;;11.75;5.18;;;;;;;8.51;100.00;101284.44;1977728;28;20480;-74
2022/09/25 02:25:48;;;;;;;11.23;5.07;;;;;;;8.49;100.00;101288.84;1976865;28;20021;-75
2022/09/25 02:26:48;;;;;;;15.75;5.50;;;;;;;8.47;100.00;101286.28;1976970;28;20036;-76
2022/09/25 02:27:46;;;;;;;;;;;;;;;8.42;100.00;101288.13;1977967;28;20021;-75
2022/09/25 02:28:43;;;;;;;13.40;4.85;;;;;;;8.38;100.00;101289.97;1977691;28;19917;-75
2022/09/25 02:29:44;;;;;;;19.95;6.38;;;;;;;8.41;100.00;101290.81;1977577;28;20049;-75
2022/09/25 02:30:43;;;;;;;14.45;5.22;;;;;;;8.41;100.00;101289.03;1977504;28;20030;-75
2022/09/25 02:31:52;;;;;;;16.58;5.32;;;;;;;8.40;100.00;101287.34;1977725;28;20468;-76
2022/09/25 02:32:50;;;;;;;15.90;5.03;;;;;;;8.37;100.00;101290.00;1977680;28;20105;-74
2022/09/25 02:33:49;;;;;;;21.00;5.30;;;;;;;8.37;100.00;101288.28;1977492;28;20032;-75
2022/09/25 02:34:47;;;;;;;21.08;5.22;;;;;;;8.35;100.00;101286.63;1977467;28;20136;-75
2022/09/25 02:35:45;;;;;;;13.32;5.45;;;;;;;8.40;100.00;101289.06;1977575;28;20026;-75
2022/09/25 02:36:43;;;;;;;15.45;5.53;;;;;;;8.40;100.00;101289.94;1977519;28;20107;-76
2022/09/25 02:37:41;;;;;;;14.77;5.30;;;;;;;8.41;100.00;101283.84;1977431;28;20024;-75
2022/09/25 02:38:38;;;;;;;22.05;5.47;;;;;;;8.38;100.00;101286.50;1984720;28;20048;-75
2022/09/25 02:39:36;;;;;;;15.15;5.53;;;;;;;8.40;100.00;101279.53;1984696;28;20067;-76
2022/09/25 02:40:46;;;;;;;18.58;5.60;;;;;;;8.42;100.00;101290.75;1978258;28;20129;-75
2022/09/25 02:42:34;;;;;;;18.95;5.80;;;;;;;8.40;100.00;101284.75;1977014;28;20429;-75
2022/09/25 02:44:44;;;;;;;11.38;4.80;;;;;;;8.38;100.00;101286.50;1977484;28;20188;-75
2022/09/25 02:46:24;;;;;;;21.53;4.90;;;;;;;8.31;100.00;101287.59;1971371;28;20038;-73
2022/09/25 02:47:49;;;;;;;12.30;4.78;;;;;;;8.25;100.00;101286.84;1971186;28;20836;-74
2022/09/25 02:49:05;;;;;;;15.43;5.28;;;;;;;8.23;100.00;101287.78;1977692;28;20473;-74
2022/09/25 02:50:47;;;;;;;14.52;5.00;;;;;;;8.19;100.00;101281.81;1977615;28;20535;-74
2022/09/25 02:52:02;;;;;;;20.98;5.75;;;;;;;8.25;100.00;101281.63;1977094;28;20037;-75
2022/09/25 02:53:33;;;;;;;16.13;5.18;;;;;;;8.24;100.00;101279.06;1976739;28;20044;-73
2022/09/25 02:54:54;;;;;;;10.50;5.13;;;;;;;8.27;100.00;101289.41;1980439;28;20059;-75
2022/09/25 02:56:29;;;;;;;12.45;4.85;;;;;;;8.22;100.00;101284.31;1982702;28;20033;-74
2022/09/25 02:57:55;;;;;;;19.17;5.72;;;;;;;8.23;100.00;101288.63;1973357;28;20146;-75
2022/09/25 02:59:05;;;;;;;24.02;4.95;;;;;;;8.20;100.00;101282.66;1977417;28;20036;-75
2022/09/25 03:00:07;;;;;;;16.35;5.20;;;;;;;8.17;100.00;101283.56;1977478;28;20033;-75
2022/09/25 03:01:09;;;;;;;18.75;5.43;;;;;;;8.14;100.00;101281.06;1976645;28;20035;-75
2022/09/25 03:02:10;;;;;;;17.30;5.65;;;;;;;8.11;100.00;101279.38;1976977;28;20041;-75
2022/09/25 03:03:13;;;;;;;14.77;5.20;;;;;;;8.10;100.00;101276.81;1976626;28;20029;-73
2022/09/25 03:04:15;;;;;;;13.80;4.93;;;;;;;8.09;100.00;101272.53;1976877;28;20469;-75
2022/09/25 03:05:14;;;;;;;20.27;5.90;;;;;;;8.05;100.00;101278.69;1977424;28;20037;-76
2022/09/25 03:06:12;;;;;;;16.58;5.38;;;;;;;8.04;100.00;101271.78;1977491;28;20039;-76
2022/09/25 03:07:10;;;;;;;15.55;6.05;;;;;;;8.03;100.00;101270.06;1977389;28;20038;-75
2022/09/25 03:09:28;;;;;;;15.95;5.55;;;;;;;7.98;100.00;101272.78;1977015;28;20032;-74
2022/09/25 03:10:28;;;;;;;13.27;5.35;;;;;;;7.94;100.00;101266.81;1977490;28;20315;-75
2022/09/25 03:11:26;;;;;;;16.88;5.32;;;;;;;7.93;100.00;101265.09;1977456;28;20570;-76
2022/09/25 03:12:24;;;;;;;16.13;5.55;;;;;;;7.90;100.00;101272.97;1975721;28;20067;-76
2022/09/25 03:13:30;;;;;;;17.25;6.20;;;;;;;7.86;100.00;101274.81;1975694;28;20036;-76
2022/09/25 03:14:31;;;;;;;18.58;5.60;;;;;;;7.87;100.00;101273.03;1977595;28;20496;-75
2022/09/25 03:15:28;;;;;;;16.27;6.07;;;;;;;7.86;100.00;101273.94;1977384;28;20040;-75
2022/09/25 03:16:34;;;;;;;21.60;5.70;;;;;;;7.81;100.00;101276.66;1977340;28;20492;-76
2022/09/25 03:17:33;;;;;;;13.90;5.82;;;;;;;7.82;100.00;101277.50;1976762;28;20517;-76
2022/09/25 03:18:30;;;;;;;14.35;6.05;;;;;;;7.81;100.00;101275.81;1976873;28;20079;-75
2022/09/25 03:19:29;;;;;;;17.48;6.43;;;;;;;7.79;100.00;101272.38;1977175;28;20061;-75
2022/09/25 03:20:26;;;;;;;14.00;5.93;;;;;;;7.79;100.00;101267.19;1977406;28;20112;-75
2022/09/25 03:21:24;;;;;;;18.65;5.78;;;;;;;7.79;100.00;101277.56;1977317;28;20036;-76
2022/09/25 03:22:21;;;;;;;17.80;5.95;;;;;;;7.76;100.00;101277.66;1977331;28;20072;-75
2022/09/25 03:23:19;;;;;;;15.75;5.95;;;;;;;7.76;100.00;101272.47;1977303;28;20029;-75
2022/09/25 03:24:17;;;;;;;18.88;6.68;;;;;;;7.87;100.00;101273.03;1977363;28;20458;-76
2022/09/25 03:25:15;;;;;;;17.77;6.00;;;;;;;7.79;100.00;101282.75;1984485;28;20033;-75
2022/09/25 03:26:12;;;;;;;19.10;6.65;;;;;;;7.78;100.00;101281.06;1984540;28;20278;-76
2022/09/25 03:27:09;;;;;;;15.02;6.70;;;;;;;7.77;100.00;101279.38;1978091;28;20037;-76
2022/09/25 03:28:11;;;;;;;16.77;6.45;;;;;;;7.82;100.00;101278.38;1977195;28;20034;-75
2022/09/25 03:29:12;;;;;;;19.67;6.25;;;;;;;7.80;100.00;101279.28;1976774;28;20025;-76
2022/09/25 03:30:09;;;;;;;13.07;6.30;;;;;;;7.76;100.00;101277.66;1976678;28;20041;-76
2022/09/25 03:31:10;;;;;;;27.38;7.18;;;;;;;7.74;100.00;101277.69;1984033;28;20025;-75
2022/09/25 03:32:09;;;;;;;18.85;6.32;;;;;;;7.75;100.00;101278.53;1984655;28;20052;-75
2022/09/25 03:33:11;;;;;;;15.60;6.15;;;;;;;7.71;100.00;101286.41;1976814;28;20041;-76
2022/09/25 03:34:11;;;;;;;17.77;6.13;;;;;;;7.69;100.00;101288.19;1976493;28;20029;-75
2022/09/25 03:35:09;;;;;;;14.55;5.47;;;;;;;7.67;100.00;101283.91;1977399;28;20432;-76
2022/09/25 03:36:10;;;;;;;17.63;6.43;;;;;;;7.65;100.00;101281.34;1977293;28;20124;-74
2022/09/25 03:37:07;;;;;;;17.60;5.88;;;;;;;7.62;100.00;101285.78;1977331;28;20032;-75
2022/09/25 03:38:09;;;;;;;17.77;5.72;;;;;;;7.60;100.00;101288.41;1977223;28;20512;-75
2022/09/25 03:39:13;;;;;;;20.25;5.97;;;;;;;7.55;100.00;101290.22;1976536;28;20030;-75
2022/09/25 03:40:11;;;;;;;14.75;6.03;;;;;;;7.53;100.00;101287.66;1968832;28;20025;-76
2022/09/25 03:41:11;;;;;;;15.35;6.30;;;;;;;7.50;100.00;101287.75;1976908;28;20014;-76
2022/09/25 03:42:09;;;;;;;;;;;;;;;7.44;100.00;101288.75;1977699;28;20535;-76
2022/09/25 03:43:06;;;;;;;26.27;6.22;;;;;;;7.44;100.00;101287.88;1974978;28;19913;-74
2022/09/25 03:44:03;;;;;;;23.00;5.68;;;;;;;7.42;100.00;101284.44;1977326;28;20033;-75
2022/09/25 03:45:01;;;;;;;17.95;5.90;;;;;;;7.41;100.00;101291.41;1977247;28;20033;-77
2022/09/25 03:45:58;;;;;;;25.20;6.47;;;;;;;7.43;100.00;101287.03;1977929;28;20045;-75
2022/09/25 03:46:56;;;;;;;18.48;6.18;;;;;;;7.42;100.00;101285.31;1978816;28;20041;-76
2022/09/25 03:47:53;;;;;;;14.52;6.07;;;;;;;7.45;100.00;101282.66;1978831;28;20083;-75
2022/09/25 03:48:53;;;;;;;18.52;6.85;;;;;;;7.43;100.00;101276.63;1978787;28;20025;-75
2022/09/25 03:49:50;;;;;;;21.55;6.38;;;;;;;7.39;100.00;101275.00;1978862;28;20032;-75
2022/09/25 03:50:49;;;;;;;21.20;6.60;;;;;;;7.38;100.00;101282.81;1978651;28;20028;-74
2022/09/25 03:51:46;;;;;;;22.45;6.15;;;;;;;7.35;100.00;101278.53;1978679;28;20025;-75
2022/09/25 03:52:44;;;;;;;25.15;6.30;;;;;;;7.36;100.00;101289.81;1979508;28;20040;-76
2022/09/25 03:53:41;;;;;;;17.38;6.70;;;;;;;7.32;100.00;101289.00;1986896;28;20017;-75
2022/09/25 03:54:39;;;;;;;20.20;6.47;;;;;;;7.28;100.00;101287.34;1980934;28;20021;-76
2022/09/25 03:55:37;;;;;;;15.07;6.28;;;;;;;7.25;100.00;101288.28;1979921;28;20112;-75
2022/09/25 03:56:34;;;;;;;25.92;6.60;;;;;;;7.24;100.00;101280.53;1979591;28;20013;-75
2022/09/25 03:57:32;;;;;;;19.08;6.68;;;;;;;7.21;100.00;101286.63;1979534;28;20029;-74
2022/09/25 03:58:31;;;;;;;23.92;6.93;;;;;;;7.20;100.00;101285.81;1978670;28;20041;-77
2022/09/25 03:59:28;;;;;;;18.60;6.75;;;;;;;7.18;100.00;101282.38;1979429;28;20059;-75
2022/09/25 04:00:26;;;;;;;25.42;7.03;;;;;;;7.17;100.00;101280.66;1980228;28;20036;-75
2022/09/25 04:01:25;;;;;;;17.48;6.30;;;;;;;7.15;100.00;101282.44;1979934;28;20025;-75
2022/09/25 04:02:23;;;;;;;25.35;7.05;;;;;;;7.16;100.00;101278.09;1980188;28;20057;-75
2022/09/25 04:03:21;;;;;;;20.20;7.43;;;;;;;7.16;100.00;101281.56;1980168;28;20030;-75
2022/09/25 04:04:19;;;;;;;20.45;7.63;;;;;;;7.21;100.00;101284.91;1980073;28;20029;-75
2022/09/25 04:05:17;;;;;;;16.10;6.80;;;;;;;7.18;100.00;101284.97;1987145;28;20029;-75
2022/09/25 04:06:22;;;;;;;21.15;6.68;;;;;;;7.19;100.00;101283.22;1979097;28;20018;-76
2022/09/25 04:07:22;;;;;;;21.67;7.18;;;;;;;7.19;100.00;101291.03;1980098;28;20389;-75
2022/09/25 04:08:19;;;;;;;18.30;7.53;;;;;;;7.24;100.00;101285.72;1979360;28;20374;-75
2022/09/25 04:09:17;;;;;;;19.05;7.57;;;;;;;7.23;100.00;101279.69;1979011;28;20037;-77
2022/09/25 04:10:14;;;;;;;26.67;7.85;;;;;;;7.21;100.00;101278.84;1986136;28;20023;-76
2022/09/25 04:11:14;;;;;;;21.70;7.30;;;;;;;7.18;100.00;101279.78;1986429;28;20531;-75
2022/09/25 04:12:20;;;;;;;18.05;7.70;;;;;;;7.15;100.00;101279.81;1979734;28;20479;-75
2022/09/25 04:13:18;;;;;;;22.45;7.32;;;;;;;7.12;100.00;101282.47;1977292;28;20088;-75
2022/09/25 04:14:34;;;;;;;20.15;7.63;;;;;;;7.14;100.00;101280.72;1979099;28;20075;-76
2022/09/25 04:15:32;;;;;;;23.45;7.43;;;;;;;7.09;100.00;101282.56;1978852;28;20079;-75
2022/09/25 04:16:30;;;;;;;26.70;7.75;;;;;;;7.06;100.00;101280.91;1978390;28;20493;-75
2022/09/25 04:17:28;;;;;;;21.35;7.10;;;;;;;7.04;100.00;101280.06;1970603;28;20025;-75
2022/09/25 04:18:32;;;;;;;21.90;7.45;;;;;;;7.04;100.00;101284.38;1978217;28;20312;-74
2022/09/25 04:19:30;;;;;;;19.48;7.72;;;;;;;7.00;100.00;101281.00;1979124;28;20026;-75
2022/09/25 04:20:27;;;;;;;23.52;7.88;;;;;;;6.99;100.00;101281.03;1978892;28;20049;-74
2022/09/25 04:21:25;;;;;;;25.63;8.18;;;;;;;6.98;100.00;101280.19;1979188;28;20388;-74
2022/09/25 04:22:23;;;;;;;23.38;8.32;;;;;;;6.99;100.00;101281.03;1978779;28;20112;-75
2022/09/25 04:23:20;;;;;;;25.45;8.43;;;;;;;7.00;100.00;101277.56;1979173;28;20021;-76
2022/09/25 04:25:34;;;;;;;23.33;7.60;;;;;;;7.02;100.00;101273.19;1979440;28;20026;-76
2022/09/25 04:26:32;;;;;;;24.48;8.73;;;;;;;7.00;100.00;101274.97;1979060;28;20116;-75
2022/09/25 04:27:29;;;;;;;25.00;8.20;;;;;;;6.97;100.00;101277.63;1978101;28;20040;-76
2022/09/25 04:28:30;;;;;;;26.45;8.85;;;;;;;6.95;100.00;101275.91;1978216;28;20065;-75
2022/09/25 04:29:27;;;;;;;24.52;9.07;;;;;;;6.94;100.00;101275.94;1978760;28;20469;-75
2022/09/25 04:30:27;;;;;;;31.40;8.75;;;;;;;6.95;100.00;101278.50;1978596;28;20119;-75
2022/09/25 04:31:28;;;;;;;25.83;8.65;;;;;;;6.93;100.00;101276.81;1978710;28;20037;-75
2022/09/25 04:33:47;;;;;;;29.60;8.95;;;;;;;6.91;100.00;101271.66;1978632;28;20033;-75
2022/09/25 04:34:44;;;;;;;27.45;8.80;;;;;;;6.89;100.00;101273.47;1977708;28;20115;-74
2022/09/25 04:35:42;;;;;;;25.88;8.45;;;;;;;6.87;100.00;101266.59;1978019;28;20075;-75
2022/09/25 04:36:40;;;;;;;26.45;9.02;;;;;;;6.85;100.00;101271.81;1978480;28;20057;-74
2022/09/25 04:37:37;;;;;;;27.95;9.43;;;;;;;6.85;100.00;101277.00;1978667;28;20392;-75
2022/09/25 04:38:35;;;;;;;27.17;9.10;;;;;;;6.84;100.00;101267.47;1978726;28;20498;-75
2022/09/25 04:39:32;;;;;;;33.30;9.40;;;;;;;6.83;100.00;101281.34;1978855;28;20033;-75
2022/09/25 04:40:33;;;;;;;27.35;9.48;;;;;;;6.83;100.00;101281.34;1979239;28;20536;-76
2022/09/25 04:41:30;;;;;;;28.58;9.68;;;;;;;6.78;100.00;101284.03;1978948;28;20074;-75
2022/09/25 04:42:28;;;;;;;26.65;8.75;;;;;;;6.77;100.00;101276.28;1977430;28;20032;-77
2022/09/25 04:43:28;;;;;;;31.00;9.05;;;;;;;6.77;100.00;101278.88;1978034;28;20034;-75
2022/09/25 04:44:26;;;;;;;;;;;;;;;6.69;100.00;101271.25;1979196;28;20139;-76
2022/09/25 04:45:25;;;;;;;23.63;8.80;;;;;;;6.64;100.00;101279.09;1985769;28;20261;-75
2022/09/25 04:46:22;;;;;;;30.50;9.70;;;;;;;6.62;100.00;101280.00;1986522;28;20033;-75
2022/09/25 04:47:22;;;;;;;36.58;10.50;;;;;;;6.60;100.00;101274.84;1977929;28;20063;-76
2022/09/25 04:48:20;;;;;;;29.80;9.77;;;;;;;6.57;100.00;101275.78;1978119;28;20564;-76
2022/09/25 04:49:20;;;;;;;34.72;10.25;;;;;;;6.58;100.00;101279.22;1978498;28;20037;-75
2022/09/25 04:50:18;;;;;;;34.92;10.05;;;;;;;6.57;100.00;101277.53;1978520;28;20028;-76
2022/09/25 04:51:16;;;;;;;30.77;9.98;;;;;;;6.56;100.00;101273.22;1978828;28;20032;-74
2022/09/25 04:52:15;;;;;;;28.90;9.75;;;;;;;6.54;100.00;101270.63;1977951;28;20021;-76
2022/09/25 04:53:13;;;;;;;28.10;9.60;;;;;;;6.53;100.00;101266.34;1978039;28;20052;-74
2022/09/25 04:54:10;;;;;;;38.03;11.00;;;;;;;6.55;100.00;101269.78;1985764;28;20039;-74
2022/09/25 04:55:11;;;;;;;25.73;9.05;;;;;;;6.54;100.00;101268.03;1986173;28;20080;-75
2022/09/25 04:56:12;;;;;;;32.22;9.80;;;;;;;6.56;100.00;101261.09;1979187;28;20064;-75
2022/09/25 04:57:15;;;;;;;37.80;10.40;;;;;;;6.56;100.00;101262.84;1977984;28;20112;-75
2022/09/25 04:58:13;;;;;;;28.70;10.35;;;;;;;6.55;100.00;101266.31;1978357;28;20043;-75
2022/09/25 04:59:10;;;;;;;31.13;9.95;;;;;;;6.53;100.00;101263.75;1986033;28;20556;-75
2022/09/25 05:00:09;;;;;;;33.22;10.57;;;;;;;6.53;100.00;101268.06;1986105;28;20426;-75
2022/09/25 05:01:08;;;;;;;35.55;10.23;;;;;;;6.50;100.00;101263.81;1979182;28;20276;-75
2022/09/25 05:02:06;;;;;;;40.45;11.48;;;;;;;6.50;100.00;101268.97;1978867;28;20028;-75